Tarrytown, New York
Current Conditions -  °F | °C
As of 9:56 PM on Friday 19 Dec 2014 (Local Time) from KHPN Reporting Station
Broken Clouds Broken Clouds  
Wind Chill: 23°   Ceiling: 2700
Heat Index: 29°   Visibility: 10mi
Dew Point: 19°   Wind: 6mph
Humidity: 67%   Direction: 330°NNW
Pressure: 30.13"   Gusts: NA
Location:  41.08°N, 73.86°W
Report Text: KHPN 200256Z 33005KT 10SM BKN027 M02/M07 A3013 RMK AO2 SLP212 T10171072 53008
Loading
Personal Weather Stations






























Interactive Weather Map New forecast layout! Learn more

10-Day Weather Forecast

Advertisements
Track Severe Weather on mobile